createdAt,value
2023-01-19T00:01:01.924Z,87078.16
2023-01-19T00:03:46.627Z,87079.78
2023-01-19T00:06:31.562Z,87077.97
2023-01-19T00:09:16.728Z,87076.09
2023-01-19T00:12:01.491Z,87079.59
2023-01-19T00:14:46.127Z,87077.06
2023-01-19T00:17:30.974Z,87076.84
2023-01-19T00:20:15.683Z,87077.78
2023-01-19T00:23:00.950Z,87080.56
2023-01-19T00:25:46.125Z,87082.41
2023-01-19T00:28:30.993Z,87085.44
2023-01-19T00:31:15.839Z,87090.78
2023-01-19T00:34:00.528Z,87077.31
2023-01-19T00:36:45.440Z,87087.78
2023-01-19T00:39:30.270Z,87086.84
2023-01-19T00:42:14.972Z,87087.97
2023-01-19T00:44:59.697Z,87095.66
2023-01-19T00:47:44.490Z,87098.66
2023-01-19T00:50:29.164Z,87098.41
2023-01-19T00:53:13.941Z,87109.75
2023-01-19T00:55:58.636Z,87108.34
2023-01-19T00:58:43.483Z,87109.75
2023-01-19T01:01:45.648Z,87108.63
2023-01-19T01:04:31.098Z,87110.25
2023-01-19T01:07:15.843Z,87115.81
2023-01-19T01:10:00.454Z,87119.50
2023-01-19T01:12:57.371Z,87118.53
2023-01-19T01:15:50.503Z,87117.16
2023-01-19T01:18:35.240Z,87123.63
2023-01-19T01:21:19.971Z,87123.16
2023-01-19T01:24:04.780Z,87127.31
2023-01-19T01:26:49.684Z,87124.72
2023-01-19T01:29:34.507Z,87119.44
2023-01-19T01:32:19.354Z,87125.03
2023-01-19T01:35:04.188Z,87121.28
2023-01-19T01:37:48.983Z,87120.56
2023-01-19T01:40:33.839Z,87127.47
2023-01-19T01:43:18.591Z,87131.88
2023-01-19T01:46:03.573Z,87139.94
2023-01-19T01:48:48.392Z,87134.63
2023-01-19T01:51:33.260Z,87130.91
2023-01-19T01:54:17.967Z,87128.81
2023-01-19T01:57:02.845Z,87124.69
2023-01-19T01:59:47.710Z,87124.47
2023-01-19T02:02:32.636Z,87129.09
2023-01-19T02:05:17.600Z,87129.56
2023-01-19T02:08:02.342Z,87132.56
2023-01-19T02:10:47.056Z,87131.19
2023-01-19T02:13:31.738Z,87133.72
2023-01-19T02:16:16.675Z,87132.97
2023-01-19T02:19:01.668Z,87129.94
2023-01-19T02:21:46.484Z,87125.44
2023-01-19T02:24:31.182Z,87129.63
2023-01-19T02:27:15.896Z,87130.75
2023-01-19T02:30:00.913Z,87123.19
2023-01-19T02:32:45.629Z,87135.50
2023-01-19T02:35:30.502Z,87134.81
2023-01-19T02:38:15.181Z,87130.09
2023-01-19T02:40:59.954Z,87143.19
2023-01-19T02:43:44.820Z,87140.09
2023-01-19T02:46:29.666Z,87145.88
2023-01-19T02:49:14.319Z,87153.84
2023-01-19T02:51:59.173Z,87151.50
2023-01-19T02:54:43.745Z,87148.53
2023-01-19T02:57:28.627Z,87152.28
2023-01-19T03:00:13.472Z,87145.19
2023-01-19T03:02:58.519Z,87147.53
2023-01-19T03:05:44.073Z,87142.16
2023-01-19T03:08:28.826Z,87144.25
2023-01-19T03:11:13.649Z,87144.28
2023-01-19T03:14:00.375Z,87152.03
2023-01-19T03:16:46.731Z,87151.38
2023-01-19T03:19:31.496Z,87152.34
2023-01-19T03:22:16.093Z,87151.63
2023-01-19T03:25:01.111Z,87157.53
2023-01-19T03:27:45.726Z,87149.38
2023-01-19T03:30:30.411Z,87144.50
2023-01-19T03:33:15.262Z,87145.19
2023-01-19T03:36:00.111Z,87151.38
2023-01-19T03:38:44.732Z,87160.09
2023-01-19T03:41:29.482Z,87159.41
2023-01-19T03:44:14.253Z,87157.00
2023-01-19T03:46:58.968Z,87158.88
2023-01-19T03:49:44.036Z,87153.97
2023-01-19T03:52:28.714Z,87153.16
2023-01-19T03:55:13.492Z,87158.03
2023-01-19T03:57:58.215Z,87151.03
2023-01-19T04:00:43.146Z,87157.50
2023-01-19T04:03:28.004Z,87153.97
2023-01-19T04:06:12.756Z,87157.91
2023-01-19T04:08:57.594Z,87159.47
2023-01-19T04:11:42.193Z,87160.31
2023-01-19T04:14:26.748Z,87158.66
2023-01-19T04:17:11.409Z,87163.97
2023-01-19T04:19:56.261Z,87161.41
2023-01-19T04:22:41.018Z,87165.47
2023-01-19T04:25:25.799Z,87166.91
2023-01-19T04:28:10.627Z,87172.75
2023-01-19T04:30:55.397Z,87167.72
2023-01-19T04:33:40.122Z,87168.84
2023-01-19T04:36:24.981Z,87174.84
2023-01-19T04:39:09.710Z,87171.56
2023-01-19T04:41:54.694Z,87179.19
2023-01-19T04:44:39.328Z,87180.97
2023-01-19T04:47:24.105Z,87177.44
2023-01-19T04:50:08.942Z,87194.41
2023-01-19T04:52:53.634Z,87193.41
2023-01-19T04:55:38.420Z,87197.94
2023-01-19T04:58:23.176Z,87190.03
2023-01-19T05:01:07.928Z,87197.38
2023-01-19T05:03:52.669Z,87203.22
2023-01-19T05:06:37.326Z,87207.53
2023-01-19T05:09:22.161Z,87206.00
2023-01-19T05:12:07.045Z,87215.00
2023-01-19T05:14:51.873Z,87205.88
2023-01-19T05:17:36.693Z,87215.41
2023-01-19T05:20:21.664Z,87213.50
2023-01-19T05:23:06.421Z,87218.78
2023-01-19T05:25:51.228Z,87219.47
2023-01-19T05:28:35.983Z,87225.00
2023-01-19T05:31:20.920Z,87219.94
2023-01-19T05:34:06.029Z,87218.13
2023-01-19T05:36:50.779Z,87226.09
2023-01-19T05:39:35.620Z,87224.25
2023-01-19T05:42:20.500Z,87226.28
2023-01-19T05:45:05.247Z,87231.66
2023-01-19T05:47:49.982Z,87222.31
2023-01-19T05:50:35.187Z,87226.75
2023-01-19T05:53:19.916Z,87224.63
2023-01-19T05:56:04.813Z,87228.00
2023-01-19T05:58:49.562Z,87231.50
2023-01-19T06:01:34.406Z,87233.34
2023-01-19T06:04:19.251Z,87240.22
2023-01-19T06:07:03.951Z,87253.53
2023-01-19T06:09:48.710Z,87253.09
2023-01-19T06:12:33.333Z,87260.47
2023-01-19T06:15:18.213Z,87265.72
2023-01-19T06:18:02.988Z,87270.53
2023-01-19T06:20:47.811Z,87271.28
2023-01-19T06:23:32.600Z,87276.34
2023-01-19T06:26:17.368Z,87276.81
2023-01-19T06:29:02.129Z,87287.25
2023-01-19T06:31:46.989Z,87296.03
2023-01-19T06:34:31.701Z,87290.84
2023-01-19T06:37:16.481Z,87295.06
2023-01-19T06:40:01.253Z,87298.44
2023-01-19T06:42:46.080Z,87298.63
2023-01-19T06:45:30.933Z,87297.59
2023-01-19T06:48:15.692Z,87304.03
2023-01-19T06:51:00.603Z,87303.06
2023-01-19T06:53:45.324Z,87306.59
2023-01-19T06:56:29.997Z,87308.84
2023-01-19T06:59:14.784Z,87309.91
2023-01-19T07:01:59.825Z,87317.91
2023-01-19T07:04:44.774Z,87316.75
2023-01-19T07:07:29.540Z,87311.00
2023-01-19T07:10:14.414Z,87321.09
2023-01-19T07:12:59.308Z,87323.63
2023-01-19T07:15:44.474Z,87325.91
2023-01-19T07:18:29.142Z,87328.44
2023-01-19T07:21:13.920Z,87323.91
2023-01-19T07:23:58.616Z,87336.84
2023-01-19T07:26:43.429Z,87332.03
2023-01-19T07:29:28.127Z,87325.13
2023-01-19T07:32:12.715Z,87325.09
2023-01-19T07:34:57.539Z,87334.91
2023-01-19T07:37:42.218Z,87336.22
2023-01-19T07:40:26.975Z,87333.31
2023-01-19T07:43:12.263Z,87333.22
2023-01-19T07:45:57.153Z,87336.28
2023-01-19T07:48:41.883Z,87342.84
2023-01-19T07:51:26.656Z,87344.72
2023-01-19T07:54:11.414Z,87340.59
2023-01-19T07:56:56.241Z,87347.78
2023-01-19T07:59:40.982Z,87351.16
2023-01-19T08:02:25.963Z,87348.56
2023-01-19T08:05:11.169Z,87350.47
2023-01-19T08:07:55.948Z,87350.22
2023-01-19T08:10:40.699Z,87356.06
2023-01-19T08:13:25.329Z,87355.06
2023-01-19T08:16:10.196Z,87351.44
2023-01-19T08:18:55.408Z,87358.94
2023-01-19T08:21:40.209Z,87363.63
2023-01-19T08:24:24.854Z,87353.84
2023-01-19T08:27:09.483Z,87363.53
2023-01-19T08:29:54.282Z,87363.25
2023-01-19T08:32:39.006Z,87368.50
2023-01-19T08:35:24.016Z,87361.00
2023-01-19T08:38:08.871Z,87367.66
2023-01-19T08:40:53.718Z,87369.41
2023-01-19T08:43:38.409Z,87367.91
2023-01-19T08:46:23.312Z,87370.31
2023-01-19T08:49:07.946Z,87366.91
2023-01-19T08:51:52.885Z,87371.81
2023-01-19T08:54:37.569Z,87373.00
2023-01-19T08:57:22.391Z,87371.22
2023-01-19T09:00:07.135Z,87363.84
2023-01-19T09:02:51.878Z,87373.41
2023-01-19T09:05:37.233Z,87376.94
2023-01-19T09:08:21.964Z,87370.41
2023-01-19T09:11:06.767Z,87369.00
2023-01-19T09:13:52.624Z,87369.91
2023-01-19T09:16:37.347Z,87371.81
2023-01-19T09:19:22.157Z,87372.06
2023-01-19T09:22:06.881Z,87379.28
2023-01-19T09:24:51.677Z,87373.25
2023-01-19T09:27:36.413Z,87371.84
2023-01-19T09:30:21.252Z,87374.19
2023-01-19T09:33:05.849Z,87380.22
2023-01-19T09:35:50.814Z,87381.59
2023-01-19T09:38:35.419Z,87379.53
2023-01-19T09:41:20.081Z,87386.97
2023-01-19T09:44:04.733Z,87389.97
2023-01-19T09:46:49.457Z,87381.38
2023-01-19T09:49:34.095Z,87392.06
2023-01-19T09:52:19.159Z,87390.66
2023-01-19T09:55:04.199Z,87391.81
2023-01-19T09:57:49.013Z,87385.78
2023-01-19T10:00:35.063Z,87391.84
2023-01-19T10:03:20.160Z,87385.09
2023-01-19T10:06:05.503Z,87384.16
2023-01-19T10:08:50.128Z,87389.97
2023-01-19T10:11:51.531Z,87380.66
2023-01-19T10:14:37.085Z,87383.66
2023-01-19T10:17:21.754Z,87387.78
2023-01-19T10:20:06.651Z,87378.28
2023-01-19T10:22:51.337Z,87371.72
2023-01-19T10:25:36.433Z,87376.09
2023-01-19T10:28:21.318Z,87369.09
2023-01-19T10:31:06.294Z,87364.88
2023-01-19T10:33:51.471Z,87368.81
2023-01-19T10:36:36.263Z,87369.63
2023-01-19T10:39:20.949Z,87372.91
2023-01-19T10:42:05.716Z,87365.88
2023-01-19T10:44:50.403Z,87371.06
2023-01-19T10:47:35.061Z,87363.47
2023-01-19T10:50:19.781Z,87359.31
2023-01-19T10:53:04.872Z,87356.28
2023-01-19T10:55:50.150Z,87364.38
2023-01-19T10:58:34.879Z,87358.56
2023-01-19T11:01:19.716Z,87355.78
2023-01-19T11:04:04.926Z,87356.47
2023-01-19T11:06:49.614Z,87355.81
2023-01-19T11:09:34.472Z,87358.84
2023-01-19T11:12:19.190Z,87357.66
2023-01-19T11:15:04.053Z,87361.16
2023-01-19T11:17:48.827Z,87358.63
2023-01-19T11:20:33.716Z,87358.84
2023-01-19T11:23:18.389Z,87351.16
2023-01-19T11:26:03.233Z,87345.59
2023-01-19T11:28:47.984Z,87348.84
2023-01-19T11:31:32.828Z,87348.81
2023-01-19T11:34:17.538Z,87339.25
2023-01-19T11:37:02.261Z,87339.44
2023-01-19T11:39:46.994Z,87341.22
2023-01-19T11:42:31.600Z,87338.84
2023-01-19T11:45:16.444Z,87340.03
2023-01-19T11:48:01.355Z,87337.91
2023-01-19T11:50:46.459Z,87336.38
2023-01-19T11:53:31.077Z,87328.09
2023-01-19T11:56:16.021Z,87327.44
2023-01-19T11:59:00.827Z,87323.97
2023-01-19T12:01:45.487Z,87325.16
2023-01-19T12:04:30.279Z,87322.38
2023-01-19T12:07:15.069Z,87320.28
2023-01-19T12:09:59.924Z,87317.97
2023-01-19T12:12:44.608Z,87310.50
2023-01-19T12:15:29.399Z,87316.09
2023-01-19T12:18:14.059Z,87313.53
2023-01-19T12:20:58.998Z,87310.50
2023-01-19T12:23:43.664Z,87305.16
2023-01-19T12:26:28.969Z,87301.47
2023-01-19T12:29:13.735Z,87306.78
2023-01-19T12:31:58.520Z,87310.50
2023-01-19T12:34:43.630Z,87300.94
2023-01-19T12:37:28.260Z,87299.50
2023-01-19T12:40:12.980Z,87290.59
2023-01-19T12:42:57.588Z,87293.81
2023-01-19T12:45:42.279Z,87289.38
2023-01-19T12:48:26.961Z,87290.53
2023-01-19T12:51:11.697Z,87289.44
2023-01-19T12:53:56.385Z,87290.59
2023-01-19T12:56:41.163Z,87285.88
2023-01-19T12:59:25.991Z,87286.09
2023-01-19T13:02:10.897Z,87287.25
2023-01-19T13:04:56.119Z,87283.53
2023-01-19T13:07:40.841Z,87276.97
2023-01-19T13:10:25.692Z,87275.66
2023-01-19T13:13:10.380Z,87284.09
2023-01-19T13:15:56.045Z,87273.88
2023-01-19T13:18:41.057Z,87275.34
2023-01-19T13:21:25.866Z,87281.22
2023-01-19T13:24:10.767Z,87277.06
2023-01-19T13:26:55.444Z,87273.81
2023-01-19T13:29:40.181Z,87280.09
2023-01-19T13:32:24.846Z,87281.75
2023-01-19T13:35:09.758Z,87270.81
2023-01-19T13:37:54.440Z,87266.41
2023-01-19T13:40:39.344Z,87270.34
2023-01-19T13:43:24.038Z,87267.78
2023-01-19T13:46:08.862Z,87276.13
2023-01-19T13:48:53.644Z,87271.03
2023-01-19T13:51:38.258Z,87272.44
2023-01-19T13:54:22.970Z,87278.25
2023-01-19T13:57:07.672Z,87285.44
2023-01-19T13:59:52.469Z,87280.31
2023-01-19T14:02:37.324Z,87282.88
2023-01-19T14:05:22.633Z,87283.09
2023-01-19T14:08:07.389Z,87288.19
2023-01-19T14:10:52.187Z,87290.31
2023-01-19T14:13:36.767Z,87284.31
2023-01-19T14:16:21.624Z,87283.13
2023-01-19T14:19:06.344Z,87284.28
2023-01-19T14:21:51.276Z,87288.44
2023-01-19T14:24:35.978Z,87287.06
2023-01-19T14:27:20.666Z,87292.41
2023-01-19T14:30:05.467Z,87295.66
2023-01-19T14:32:50.240Z,87295.88
2023-01-19T14:35:35.059Z,87291.47
2023-01-19T14:38:19.702Z,87288.19
2023-01-19T14:41:04.544Z,87291.22
2023-01-19T14:43:49.289Z,87287.25
2023-01-19T14:46:34.151Z,87282.38
2023-01-19T14:49:18.762Z,87288.16
2023-01-19T14:52:03.743Z,87277.94
2023-01-19T14:54:48.570Z,87283.03
2023-01-19T14:57:33.176Z,87285.34
2023-01-19T15:00:18.041Z,87290.66
2023-01-19T15:03:02.893Z,87275.53
2023-01-19T15:05:47.586Z,87281.75
2023-01-19T15:08:32.364Z,87282.69
2023-01-19T15:11:17.089Z,87284.31
2023-01-19T15:14:01.761Z,87285.44
2023-01-19T15:16:46.594Z,87284.03
2023-01-19T15:19:31.419Z,87276.63
2023-01-19T15:22:16.185Z,87279.34
2023-01-19T15:25:00.839Z,87283.75
2023-01-19T15:27:45.572Z,87281.38
2023-01-19T15:30:30.558Z,87271.16
2023-01-19T15:33:15.149Z,87277.84
2023-01-19T15:35:59.916Z,87272.31
2023-01-19T15:38:44.572Z,87267.31
2023-01-19T15:41:29.425Z,87271.63
2023-01-19T15:44:14.017Z,87267.88
2023-01-19T15:46:58.756Z,87266.31
2023-01-19T15:49:43.509Z,87267.81
2023-01-19T15:52:28.368Z,87264.50
2023-01-19T15:55:13.143Z,87263.06
2023-01-19T15:57:57.979Z,87265.84
2023-01-19T16:00:42.878Z,87268.53
2023-01-19T16:03:27.941Z,87269.44
2023-01-19T16:06:12.693Z,87262.91
2023-01-19T16:08:57.403Z,87268.47
2023-01-19T16:11:42.227Z,87262.69
2023-01-19T16:14:26.983Z,87260.44
2023-01-19T16:17:11.620Z,87256.72
2023-01-19T16:19:56.305Z,87263.22
2023-01-19T16:22:41.111Z,87252.50
2023-01-19T16:25:25.892Z,87255.03
2023-01-19T16:28:10.617Z,87256.81
2023-01-19T16:30:55.587Z,87262.56
2023-01-19T16:33:40.195Z,87264.66
2023-01-19T16:36:25.033Z,87261.41
2023-01-19T16:39:09.816Z,87261.84
2023-01-19T16:41:54.528Z,87260.66
2023-01-19T16:44:39.292Z,87265.03
2023-01-19T16:47:24.123Z,87258.13
2023-01-19T16:50:09.210Z,87265.16
2023-01-19T16:52:54.126Z,87258.66
2023-01-19T16:55:38.902Z,87262.50
2023-01-19T16:58:23.580Z,87260.84
2023-01-19T17:01:08.472Z,87264.16
2023-01-19T17:03:53.585Z,87257.03
2023-01-19T17:06:38.391Z,87257.22
2023-01-19T17:09:23.101Z,87256.66
2023-01-19T17:12:07.963Z,87258.91
2023-01-19T17:14:52.828Z,87255.44
2023-01-19T17:17:37.529Z,87256.78
2023-01-19T17:20:22.201Z,87253.53
2023-01-19T17:23:07.029Z,87250.50
2023-01-19T17:25:51.832Z,87253.63
2023-01-19T17:28:36.665Z,87260.22
2023-01-19T17:31:21.573Z,87259.56
2023-01-19T17:34:06.556Z,87256.53
2023-01-19T17:36:51.196Z,87257.94
2023-01-19T17:39:35.826Z,87256.78
2023-01-19T17:42:20.653Z,87256.88
2023-01-19T17:45:05.387Z,87259.81
2023-01-19T17:47:50.398Z,87266.72
2023-01-19T17:50:35.191Z,87262.13
2023-01-19T17:53:20.002Z,87262.31
2023-01-19T17:56:04.740Z,87268.50
2023-01-19T17:58:49.433Z,87266.59
2023-01-19T18:01:34.275Z,87257.28
2023-01-19T18:04:19.341Z,87262.91
2023-01-19T18:07:04.145Z,87260.91
2023-01-19T18:09:48.792Z,87258.88
2023-01-19T18:12:33.608Z,87259.28
2023-01-19T18:15:18.247Z,87259.25
2023-01-19T18:18:02.967Z,87262.13
2023-01-19T18:20:47.860Z,87261.28
2023-01-19T18:23:32.529Z,87260.00
2023-01-19T18:26:17.254Z,87259.31
2023-01-19T18:29:02.198Z,87260.00
2023-01-19T18:31:47.133Z,87257.72
2023-01-19T18:34:32.141Z,87258.31
2023-01-19T18:37:16.878Z,87263.28
2023-01-19T18:40:01.478Z,87255.50
2023-01-19T18:42:46.201Z,87248.06
2023-01-19T18:45:30.885Z,87252.53
2023-01-19T18:48:17.945Z,87252.22
2023-01-19T18:51:02.933Z,87248.06
2023-01-19T18:53:47.629Z,87239.34
2023-01-19T18:56:32.323Z,87235.16
2023-01-19T18:59:17.057Z,87236.25
2023-01-19T19:02:01.888Z,87240.25
2023-01-19T19:04:46.579Z,87237.72
2023-01-19T19:07:31.368Z,87228.88
2023-01-19T19:10:16.192Z,87226.28
2023-01-19T19:13:00.725Z,87227.25
2023-01-19T19:15:45.566Z,87230.28
2023-01-19T19:18:30.249Z,87221.47
2023-01-19T19:21:15.157Z,87222.34
2023-01-19T19:23:59.889Z,87225.97
2023-01-19T19:26:44.685Z,87225.09
2023-01-19T19:29:29.387Z,87221.66
2023-01-19T19:32:14.391Z,87221.84
2023-01-19T19:34:59.069Z,87223.13
2023-01-19T19:37:43.927Z,87223.13
2023-01-19T19:40:28.764Z,87219.25
2023-01-19T19:43:13.562Z,87217.44
2023-01-19T19:45:58.448Z,87219.59
2023-01-19T19:48:43.220Z,87223.59
2023-01-19T19:51:28.130Z,87220.81
2023-01-19T19:54:12.952Z,87219.53
2023-01-19T19:56:57.799Z,87218.59
2023-01-19T19:59:42.552Z,87215.84
2023-01-19T20:02:27.309Z,87225.44
2023-01-19T20:05:12.160Z,87218.13
2023-01-19T20:07:56.980Z,87223.53
2023-01-19T20:10:41.783Z,87216.56
2023-01-19T20:13:26.574Z,87213.78
2023-01-19T20:16:11.932Z,87224.44
2023-01-19T20:18:56.608Z,87223.53
2023-01-19T20:21:41.471Z,87232.75
2023-01-19T20:24:26.173Z,87222.09
2023-01-19T20:27:11.056Z,87222.59
2023-01-19T20:29:55.772Z,87224.44
2023-01-19T20:32:40.455Z,87227.41
2023-01-19T20:35:25.254Z,87224.94
2023-01-19T20:38:09.985Z,87233.16
2023-01-19T20:40:54.730Z,87230.28
2023-01-19T20:43:39.576Z,87238.97
2023-01-19T20:46:24.360Z,87244.56
2023-01-19T20:49:09.148Z,87244.03
2023-01-19T20:51:54.036Z,87245.25
2023-01-19T20:54:38.668Z,87252.94
2023-01-19T20:57:23.594Z,87244.41
2023-01-19T21:00:08.504Z,87245.75
2023-01-19T21:02:53.341Z,87247.13
2023-01-19T21:05:38.098Z,87251.88
2023-01-19T21:08:23.064Z,87249.56
2023-01-19T21:11:07.943Z,87259.91
2023-01-19T21:13:52.800Z,87256.41
2023-01-19T21:16:37.536Z,87257.44
2023-01-19T21:19:23.514Z,87257.94
2023-01-19T21:22:08.497Z,87258.91
2023-01-19T21:24:53.144Z,87255.78
2023-01-19T21:27:37.959Z,87251.44
2023-01-19T21:30:22.785Z,87253.56
2023-01-19T21:33:07.693Z,87254.50
2023-01-19T21:35:52.532Z,87251.66
2023-01-19T21:38:37.232Z,87254.88
2023-01-19T21:41:21.960Z,87251.91
2023-01-19T21:44:06.630Z,87254.28
2023-01-19T21:46:51.506Z,87251.91
2023-01-19T21:49:36.191Z,87260.38
2023-01-19T21:52:20.964Z,87257.66
2023-01-19T21:55:05.724Z,87262.66
2023-01-19T21:57:50.521Z,87259.84
2023-01-19T22:00:35.144Z,87265.44
2023-01-19T22:03:19.959Z,87267.19
2023-01-19T22:06:04.616Z,87267.06
2023-01-19T22:08:49.404Z,87276.44
2023-01-19T22:11:34.278Z,87276.00
2023-01-19T22:14:19.114Z,87279.13
2023-01-19T22:17:03.862Z,87279.22
2023-01-19T22:19:48.631Z,87275.38
2023-01-19T22:22:33.366Z,87274.41
2023-01-19T22:25:18.064Z,87275.63
2023-01-19T22:28:02.914Z,87276.00
2023-01-19T22:30:47.773Z,87275.06
2023-01-19T22:33:32.524Z,87275.94
2023-01-19T22:36:17.315Z,87286.31
2023-01-19T22:39:02.130Z,87289.28
2023-01-19T22:41:46.888Z,87291.03
2023-01-19T22:44:31.550Z,87292.53
2023-01-19T22:47:16.463Z,87287.09
2023-01-19T22:50:01.117Z,87293.03
2023-01-19T22:52:45.916Z,87296.81
2023-01-19T22:55:30.562Z,87297.00
2023-01-19T22:58:15.298Z,87292.56
2023-01-19T23:01:00.201Z,87293.06
2023-01-19T23:03:45.451Z,87285.97
2023-01-19T23:06:30.226Z,87285.81
2023-01-19T23:09:14.920Z,87283.44
2023-01-19T23:11:59.740Z,87290.38
2023-01-19T23:14:44.523Z,87290.59
2023-01-19T23:17:29.328Z,87285.72
2023-01-19T23:20:13.941Z,87286.06
2023-01-19T23:22:58.669Z,87281.69
2023-01-19T23:25:43.367Z,87297.84
2023-01-19T23:28:28.165Z,87292.00
2023-01-19T23:31:13.028Z,87294.81
2023-01-19T23:33:58.167Z,87295.31
2023-01-19T23:36:42.974Z,87291.84
2023-01-19T23:39:27.765Z,87289.63
2023-01-19T23:42:12.631Z,87301.56
2023-01-19T23:44:57.354Z,87293.06
2023-01-19T23:47:42.110Z,87296.03
2023-01-19T23:50:26.798Z,87294.25
2023-01-19T23:53:11.548Z,87302.28
2023-01-19T23:55:56.245Z,87301.25
2023-01-19T23:58:41.110Z,87300.50
